Time;durP1;ratioP1;P1;durP2;ratioP2;P2;SDS_P1;SDS_P2;PMS_P1;PMS_P2;Temp;Humidity;BMP_temperature;BMP_pressure;BME280_temperature;BME280_humidity;BME280_pressure;Samples;Min_cycle;Max_cycle;Signal;HPM_P1;HPM_P2
2023/07/02 00:00:51;;;;;;;3.30;3.00;;;17.60;99.90;;;;;;5046045;28;20227;-76
2023/07/02 00:03:21;;;;;;;3.37;2.73;;;17.60;99.90;;;;;;5045229;28;20301;-75
2023/07/02 00:05:49;;;;;;;4.27;3.33;;;17.50;99.90;;;;;;5047747;28;20196;-77
2023/07/02 00:08:16;;;;;;;3.30;3.00;;;17.50;99.90;;;;;;5044513;28;20222;-76
2023/07/02 00:10:44;;;;;;;4.23;2.90;;;17.60;99.90;;;;;;5042727;28;20191;-77
2023/07/02 00:13:11;;;;;;;4.00;3.47;;;17.60;99.90;;;;;;5051733;28;20207;-77
2023/07/02 00:15:38;;;;;;;5.07;3.20;;;17.60;99.90;;;;;;5048998;28;20207;-75
2023/07/02 00:18:06;;;;;;;3.83;3.30;;;17.50;99.90;;;;;;5047310;28;20194;-77
2023/07/02 00:20:37;;;;;;;3.47;3.10;;;17.50;99.90;;;;;;5048548;28;20195;-75
2023/07/02 00:23:04;;;;;;;4.33;3.40;;;17.50;99.90;;;;;;5044383;28;20948;-77
2023/07/02 00:25:31;;;;;;;3.50;3.20;;;17.50;99.90;;;;;;5046970;28;20257;-76
2023/07/02 00:27:58;;;;;;;3.43;3.13;;;17.50;99.90;;;;;;5049943;28;20220;-77
2023/07/02 00:30:24;;;;;;;3.60;3.30;;;17.50;99.90;;;;;;5043490;28;20195;-76
2023/07/02 00:32:51;;;;;;;3.37;3.10;;;17.50;99.90;;;;;;5056287;28;20222;-76
2023/07/02 00:35:20;;;;;;;4.63;3.20;;;17.50;99.90;;;;;;5050571;28;20627;-76
2023/07/02 00:37:47;;;;;;;3.43;3.13;;;17.50;99.90;;;;;;5047552;28;20219;-77
2023/07/02 00:40:14;;;;;;;3.73;3.07;;;17.50;99.90;;;;;;5041445;28;20257;-77
2023/07/02 00:42:41;;;;;;;3.47;2.97;;;17.50;99.90;;;;;;5064548;28;20222;-77
2023/07/02 00:45:09;;;;;;;3.63;3.33;;;17.50;99.90;;;;;;5064447;28;20261;-77
2023/07/02 00:47:36;;;;;;;3.60;3.30;;;17.50;99.90;;;;;;5068436;28;20226;-77
2023/07/02 00:50:04;;;;;;;3.37;3.17;;;17.50;99.90;;;;;;5066447;28;20556;-77
2023/07/02 00:52:32;;;;;;;3.63;3.33;;;17.50;99.90;;;;;;5051758;28;20284;-75
2023/07/02 00:54:59;;;;;;;3.43;3.13;;;17.50;99.90;;;;;;5035376;28;20199;-77
2023/07/02 00:57:29;;;;;;;3.37;3.07;;;17.50;99.90;;;;;;5053157;28;20250;-77
2023/07/02 00:59:57;;;;;;;3.90;3.50;;;17.50;99.90;;;;;;5059852;28;20276;-75
2023/07/02 01:02:25;;;;;;;3.53;3.23;;;17.50;99.90;;;;;;5066800;28;20206;-77
2023/07/02 01:04:57;;;;;;;3.13;2.90;;;17.50;99.90;;;;;;5067601;28;20203;-75
2023/07/02 01:07:25;;;;;;;4.33;3.60;;;17.50;99.90;;;;;;5052997;28;20249;-75
2023/07/02 01:09:53;;;;;;;4.17;3.77;;;17.50;99.90;;;;;;5055389;28;20200;-76
2023/07/02 01:12:22;;;;;;;3.77;3.43;;;17.50;99.90;;;;;;5054194;28;20223;-76
2023/07/02 01:14:50;;;;;;;3.67;3.27;;;17.50;99.90;;;;;;5065948;28;20220;-76
2023/07/02 01:17:19;;;;;;;7.73;3.67;;;17.50;99.90;;;;;;5051477;28;20481;-75
2023/07/02 01:19:52;;;;;;;5.10;3.70;;;17.50;99.90;;;;;;5059295;28;20202;-75
2023/07/02 01:22:19;;;;;;;3.30;3.07;;;17.50;99.90;;;;;;5063515;28;20258;-75
2023/07/02 01:24:47;;;;;;;4.83;3.70;;;17.50;99.90;;;;;;5066935;28;20206;-75
2023/07/02 01:27:15;;;;;;;3.80;3.50;;;17.50;99.90;;;;;;5067801;28;20227;-74
2023/07/02 01:29:44;;;;;;;4.40;3.60;;;17.50;99.90;;;;;;5063939;28;20256;-75
2023/07/02 01:32:11;;;;;;;3.60;3.30;;;17.40;99.90;;;;;;5051907;28;20222;-75
2023/07/02 01:34:38;;;;;;;4.30;3.90;;;17.40;99.90;;;;;;5057388;28;20204;-76
2023/07/02 01:37:09;;;;;;;4.90;3.40;;;17.40;99.90;;;;;;5064412;28;20207;-77
2023/07/02 01:39:36;;;;;;;3.90;3.50;;;17.40;99.90;;;;;;5043976;28;20254;-77
2023/07/02 01:42:10;;;;;;;3.77;3.40;;;17.40;99.90;;;;;;5050591;28;20849;-77
2023/07/02 01:44:37;;;;;;;3.80;3.50;;;17.30;99.90;;;;;;5049795;28;20197;-77
2023/07/02 01:47:04;;;;;;;4.07;3.70;;;17.30;99.90;;;;;;5051224;28;20219;-77
2023/07/02 01:49:32;;;;;;;4.10;3.70;;;17.20;99.90;;;;;;5053795;28;20194;-77
2023/07/02 01:51:59;;;;;;;5.30;3.70;;;17.20;99.90;;;;;;5058219;28;20223;-77
2023/07/02 01:54:29;;;;;;;4.00;3.60;;;17.10;99.90;;;;;;5065258;28;20203;-77
2023/07/02 01:56:56;;;;;;;3.93;3.60;;;17.10;99.90;;;;;;5063479;28;20219;-77
2023/07/02 01:59:23;;;;;;;6.30;3.80;;;17.10;99.90;;;;;;5061494;28;20727;-78
2023/07/02 02:01:50;;;;;;;4.63;3.80;;;17.00;99.90;;;;;;5061092;28;20716;-76
2023/07/02 02:04:17;;;;;;;4.33;3.93;;;17.00;99.90;;;;;;5059060;28;20202;-77
2023/07/02 02:06:44;;;;;;;5.30;3.97;;;17.00;99.90;;;;;;5070024;28;20218;-77
2023/07/02 02:09:12;;;;;;;4.60;3.83;;;17.10;99.90;;;;;;5050556;28;20603;-77
2023/07/02 02:11:41;;;;;;;6.17;4.50;;;17.00;99.90;;;;;;5064393;28;20920;-76
2023/07/02 02:14:08;;;;;;;4.97;4.47;;;16.90;99.90;;;;;;5071580;28;20257;-77
2023/07/02 02:16:35;;;;;;;5.40;4.30;;;16.90;99.90;;;;;;5064132;28;20264;-77
2023/07/02 02:19:03;;;;;;;4.30;3.90;;;16.90;99.90;;;;;;5066334;28;20205;-76
2023/07/02 02:21:30;;;;;;;5.40;3.80;;;16.90;99.90;;;;;;5057765;28;20681;-78
2023/07/02 02:23:57;;;;;;;4.80;3.63;;;16.90;99.90;;;;;;5057118;28;20669;-77
2023/07/02 02:26:25;;;;;;;4.20;3.80;;;16.90;99.90;;;;;;5053584;28;20195;-75
2023/07/02 02:28:53;;;;;;;4.87;3.77;;;16.90;99.90;;;;;;5062142;28;20199;-78
2023/07/02 02:31:20;;;;;;;4.33;3.93;;;16.80;99.90;;;;;;5067059;28;20661;-76
2023/07/02 02:33:47;;;;;;;4.10;3.70;;;16.80;99.90;;;;;;5065612;28;20190;-76
2023/07/02 02:36:15;;;;;;;3.77;3.47;;;16.70;99.90;;;;;;5066277;28;20216;-76
2023/07/02 02:38:42;;;;;;;5.90;5.40;;;16.70;99.90;;;;;;5057931;28;20197;-77
2023/07/02 02:41:09;;;;;;;4.30;3.80;;;16.70;99.90;;;;;;5052338;28;20233;-76
2023/07/02 02:43:42;;;;;;;6.50;6.00;;;16.70;99.90;;;;;;5067631;28;20560;-77
2023/07/02 02:46:11;;;;;;;4.47;3.90;;;16.70;99.90;;;;;;5066373;28;20201;-75
2023/07/02 02:48:38;;;;;;;7.50;6.90;;;16.70;99.90;;;;;;5054888;28;20289;-77
2023/07/02 02:51:05;;;;;;;4.33;3.93;;;16.70;99.90;;;;;;5065980;28;20191;-77
2023/07/02 02:53:32;;;;;;;7.30;4.10;;;16.70;99.90;;;;;;5052344;28;20246;-76
2023/07/02 02:55:59;;;;;;;4.83;4.20;;;16.80;99.90;;;;;;5047251;28;20215;-77
2023/07/02 02:58:27;;;;;;;4.43;4.03;;;16.80;99.90;;;;;;5067418;28;20746;-75
2023/07/02 03:00:54;;;;;;;4.63;4.20;;;16.80;99.90;;;;;;5066410;28;20243;-78
2023/07/02 03:03:24;;;;;;;4.13;3.73;;;16.80;99.90;;;;;;5059992;28;20225;-76
2023/07/02 03:05:51;;;;;;;4.07;3.60;;;16.80;99.90;;;;;;5064725;28;20209;-76
2023/07/02 03:08:18;;;;;;;4.10;3.70;;;16.90;99.90;;;;;;5068337;28;20592;-78
2023/07/02 03:10:45;;;;;;;4.03;3.70;;;16.90;99.90;;;;;;5056837;28;20218;-76
2023/07/02 03:13:12;;;;;;;4.00;3.70;;;16.90;99.90;;;;;;5072706;28;20214;-77
2023/07/02 03:15:38;;;;;;;4.90;4.40;;;17.00;99.90;;;;;;5066658;28;20228;-76
2023/07/02 03:18:06;;;;;;;4.57;4.03;;;17.00;99.90;;;;;;5066464;28;20209;-77
2023/07/02 03:20:34;;;;;;;5.70;4.20;;;16.90;99.90;;;;;;5066272;28;20208;-78
2023/07/02 03:23:01;;;;;;;6.47;4.60;;;16.80;99.90;;;;;;5051299;28;20249;-76
2023/07/02 03:25:27;;;;;;;4.50;4.10;;;16.80;99.90;;;;;;5051159;28;20294;-76
2023/07/02 03:27:54;;;;;;;5.93;4.97;;;16.80;99.90;;;;;;5047254;28;20249;-77
2023/07/02 03:30:21;;;;;;;7.13;5.23;;;16.80;99.90;;;;;;5044705;28;20685;-76
2023/07/02 03:32:48;;;;;;;5.33;4.60;;;16.70;99.90;;;;;;5050328;28;20215;-77
2023/07/02 03:35:15;;;;;;;9.40;5.87;;;16.70;99.90;;;;;;5044735;28;20209;-77
2023/07/02 03:37:43;;;;;;;7.07;5.30;;;16.70;99.90;;;;;;5062135;28;20282;-76
2023/07/02 03:40:11;;;;;;;5.60;5.10;;;16.70;99.90;;;;;;5052017;28;20262;-76
2023/07/02 03:42:37;;;;;;;6.80;5.57;;;16.60;99.90;;;;;;5045362;28;20233;-77
2023/07/02 03:45:05;;;;;;;7.30;5.70;;;16.60;99.90;;;;;;5051079;28;20204;-77
2023/07/02 03:47:32;;;;;;;5.90;5.40;;;16.60;99.90;;;;;;5047504;28;20228;-76
2023/07/02 03:49:58;;;;;;;6.03;5.33;;;16.60;99.90;;;;;;5044652;28;20638;-76
2023/07/02 03:52:25;;;;;;;5.73;5.17;;;16.40;99.90;;;;;;5050176;28;20310;-79
2023/07/02 03:54:53;;;;;;;8.10;6.07;;;16.40;99.90;;;;;;5043231;28;20694;-78
2023/07/02 03:57:20;;;;;;;6.97;6.37;;;16.40;99.90;;;;;;5049981;28;20191;-78
2023/07/02 03:59:47;;;;;;;5.57;4.80;;;16.30;99.90;;;;;;5054537;28;20253;-75
2023/07/02 04:02:14;;;;;;;7.00;4.80;;;16.20;99.90;;;;;;5053116;28;20294;-77
2023/07/02 04:04:41;;;;;;;5.70;4.70;;;16.10;99.90;;;;;;5050866;28;20194;-77
2023/07/02 04:07:07;;;;;;;6.30;5.70;;;16.10;99.90;;;;;;5052007;28;20227;-77
2023/07/02 04:09:34;;;;;;;7.33;6.63;;;16.00;99.90;;;;;;5050264;28;20199;-77
2023/07/02 04:12:02;;;;;;;7.33;5.50;;;16.00;99.90;;;;;;5052903;28;20307;-77
2023/07/02 04:14:29;;;;;;;7.47;5.43;;;16.00;99.90;;;;;;5045659;28;20883;-77
2023/07/02 04:16:56;;;;;;;6.53;5.10;;;16.10;99.90;;;;;;5043036;28;20653;-77
2023/07/02 04:19:23;;;;;;;5.37;4.87;;;16.10;99.90;;;;;;5045144;28;20254;-77
2023/07/02 04:21:50;;;;;;;6.20;5.03;;;16.10;99.90;;;;;;5052020;28;20895;-79
2023/07/02 04:24:16;;;;;;;5.80;5.23;;;16.10;99.90;;;;;;5053895;28;20226;-79
2023/07/02 04:26:44;;;;;;;6.80;5.23;;;16.00;99.90;;;;;;5066944;28;20658;-80
2023/07/02 04:29:12;;;;;;;5.70;5.10;;;16.00;99.90;;;;;;5068391;28;20245;-80
2023/07/02 04:31:39;;;;;;;5.53;4.93;;;16.00;99.90;;;;;;5054356;28;20243;-78
2023/07/02 04:34:06;;;;;;;5.73;5.00;;;16.10;99.90;;;;;;5065791;28;20734;-81
2023/07/02 04:36:37;;;;;;;6.33;5.17;;;16.10;99.90;;;;;;5061029;28;20218;-80
2023/07/02 04:39:04;;;;;;;5.20;4.70;;;16.10;99.90;;;;;;5051429;28;20194;-79
2023/07/02 04:41:34;;;;;;;5.53;4.53;;;16.10;99.90;;;;;;5054740;28;20203;-79
2023/07/02 04:44:01;;;;;;;5.70;5.10;;;16.10;99.90;;;;;;5068396;28;20319;-78
2023/07/02 04:46:29;;;;;;;6.77;4.80;;;16.20;99.90;;;;;;5050612;28;20211;-79
2023/07/02 04:48:56;;;;;;;4.90;4.40;;;16.20;99.90;;;;;;5049181;28;20218;-79
2023/07/02 04:51:23;;;;;;;4.90;4.50;;;16.20;99.90;;;;;;5058258;28;20283;-80
2023/07/02 04:53:50;;;;;;;5.80;4.80;;;16.20;99.90;;;;;;5059944;28;20286;-79
2023/07/02 04:56:16;;;;;;;5.07;4.57;;;16.30;99.90;;;;;;5050165;28;20708;-80
2023/07/02 04:58:43;;;;;;;4.67;4.20;;;16.20;99.90;;;;;;5050493;28;20203;-77
2023/07/02 05:01:10;;;;;;;5.10;4.60;;;16.20;99.90;;;;;;5061498;28;20211;-77
2023/07/02 05:03:39;;;;;;;4.97;4.30;;;16.30;99.90;;;;;;5049258;28;20578;-77
2023/07/02 05:06:06;;;;;;;4.80;3.90;;;16.30;99.90;;;;;;5060493;28;20192;-77
2023/07/02 05:08:32;;;;;;;7.73;3.97;;;16.30;99.90;;;;;;5061087;28;20287;-77
2023/07/02 05:10:59;;;;;;;3.97;3.67;;;16.30;99.90;;;;;;5055071;28;20192;-76
2023/07/02 05:13:26;;;;;;;4.30;3.90;;;16.30;99.90;;;;;;5064392;28;20230;-77
2023/07/02 05:15:53;;;;;;;6.80;5.97;;;16.40;99.90;;;;;;5065101;28;20279;-77
2023/07/02 05:18:19;;;;;;;6.03;4.00;;;16.70;99.90;;;;;;5071389;28;20190;-77
2023/07/02 05:20:47;;;;;;;4.03;3.43;;;16.80;99.90;;;;;;5066456;28;20571;-77
2023/07/02 05:23:14;;;;;;;4.13;3.73;;;17.00;99.90;;;;;;5071689;28;20217;-77
2023/07/02 05:25:41;;;;;;;3.90;3.60;;;17.00;99.90;;;;;;5051263;28;20194;-77
2023/07/02 05:28:08;;;;;;;3.87;3.57;;;17.00;99.90;;;;;;5068757;28;20877;-77
2023/07/02 05:30:34;;;;;;;4.10;3.80;;;17.10;99.90;;;;;;5062013;28;20196;-77
2023/07/02 05:33:01;;;;;;;3.80;3.50;;;17.20;99.90;;;;;;5052447;28;20211;-77
2023/07/02 05:35:28;;;;;;;6.83;6.23;;;17.10;99.90;;;;;;5068630;28;20202;-77
2023/07/02 05:37:56;;;;;;;3.70;3.43;;;17.10;99.90;;;;;;5064019;28;20226;-77
2023/07/02 05:40:23;;;;;;;3.87;3.57;;;17.20;99.90;;;;;;5051308;28;20200;-77
2023/07/02 05:42:50;;;;;;;4.17;3.73;;;17.30;99.90;;;;;;5050281;28;20716;-77
2023/07/02 05:45:17;;;;;;;3.60;3.30;;;17.40;99.90;;;;;;5047970;28;20242;-76
2023/07/02 05:47:43;;;;;;;5.17;4.10;;;17.50;99.90;;;;;;5052974;28;20281;-78
2023/07/02 05:50:10;;;;;;;6.70;6.10;;;18.10;99.90;;;;;;5057099;28;20237;-77
2023/07/02 05:52:37;;;;;;;5.87;5.33;;;18.60;99.90;;;;;;5064427;28;20227;-78
2023/07/02 05:55:10;;;;;;;4.73;4.33;;;18.80;99.90;;;;;;5046903;28;20205;-77
2023/07/02 05:57:36;;;;;;;6.50;5.93;;;18.80;99.90;;;;;;5052160;28;20205;-77
2023/07/02 06:00:06;;;;;;;5.60;5.20;;;19.10;99.90;;;;;;5062011;28;20276;-77
2023/07/02 06:02:38;;;;;;;7.03;6.53;;;19.90;99.90;;;;;;5065755;28;20230;-77
2023/07/02 06:05:06;;;;;;;5.70;5.30;;;20.70;99.90;;;;;;5058331;28;20204;-75
2023/07/02 06:07:33;;;;;;;5.60;5.10;;;21.50;99.90;;;;;;5068035;28;20615;-76
2023/07/02 06:10:00;;;;;;;4.90;4.50;;;22.00;99.90;;;;;;5067208;28;20821;-75
2023/07/02 06:12:28;;;;;;;8.00;7.40;;;21.90;99.90;;;;;;5055452;28;20271;-76
2023/07/02 06:14:54;;;;;;;3.90;3.60;;;21.60;99.90;;;;;;5048974;28;20208;-75
2023/07/02 06:17:22;;;;;;;5.83;5.33;;;22.00;99.90;;;;;;5050462;28;20256;-75
2023/07/02 06:19:49;;;;;;;5.17;4.77;;;22.60;99.90;;;;;;5044142;28;20282;-75
2023/07/02 06:22:16;;;;;;;4.70;4.33;;;22.60;99.90;;;;;;5049974;28;20214;-75
2023/07/02 06:24:43;;;;;;;5.50;5.07;;;22.70;99.90;;;;;;5052476;28;20246;-77
2023/07/02 06:27:09;;;;;;;5.80;5.23;;;23.00;99.90;;;;;;5045574;28;20257;-78
2023/07/02 06:29:37;;;;;;;4.53;4.23;;;23.20;99.90;;;;;;5048551;28;20301;-77
2023/07/02 06:32:05;;;;;;;6.03;5.30;;;23.60;99.90;;;;;;5047910;28;20218;-77
2023/07/02 06:34:32;;;;;;;5.97;5.47;;;23.50;99.90;;;;;;5050452;28;20616;-77
2023/07/02 06:36:59;;;;;;;4.77;4.27;;;23.90;99.90;;;;;;5061593;28;20257;-77
2023/07/02 06:39:25;;;;;;;7.07;6.43;;;23.80;99.90;;;;;;5051169;28;20199;-78
2023/07/02 06:41:52;;;;;;;4.30;3.90;;;24.20;99.90;;;;;;5050403;28;20753;-78
2023/07/02 06:44:19;;;;;;;7.20;6.70;;;24.30;99.90;;;;;;5045338;28;20196;-78
2023/07/02 06:46:48;;;;;;;8.73;8.13;;;24.70;99.90;;;;;;5051278;28;20268;-77
2023/07/02 06:49:15;;;;;;;4.10;3.60;;;24.40;99.90;;;;;;5046016;28;20219;-77
2023/07/02 06:51:42;;;;;;;4.87;3.30;;;24.50;99.90;;;;;;5050626;28;20233;-77
2023/07/02 06:54:09;;;;;;;4.33;3.50;;;24.60;99.90;;;;;;5046995;28;20557;-76
2023/07/02 06:56:35;;;;;;;6.10;5.37;;;24.50;99.90;;;;;;5056230;28;20202;-81
2023/07/02 06:59:03;;;;;;;5.13;3.83;;;24.60;99.90;;;;;;5052032;28;20269;-78
2023/07/02 07:01:29;;;;;;;4.53;3.30;;;24.60;99.90;;;;;;5046054;28;20230;-84
2023/07/02 07:03:58;;;;;;;6.23;5.63;;;25.00;99.90;;;;;;5048857;28;20252;-79
2023/07/02 07:06:25;;;;;;;8.43;7.63;;;25.30;99.90;;;;;;5062750;28;20187;-78
2023/07/02 07:08:52;;;;;;;8.57;7.77;;;25.40;99.90;;;;;;5047531;28;20212;-78
2023/07/02 07:11:19;;;;;;;9.80;8.93;;;25.10;99.90;;;;;;5052049;28;20637;-79
2023/07/02 07:13:46;;;;;;;6.13;4.87;;;25.30;99.90;;;;;;5050016;28;20204;-78
2023/07/02 07:16:13;;;;;;;6.87;5.83;;;24.70;99.90;;;;;;5047281;28;20199;-77
2023/07/02 07:18:39;;;;;;;7.67;4.63;;;24.20;99.90;;;;;;5051774;28;20662;-77
2023/07/02 07:21:07;;;;;;;8.90;8.03;;;24.30;99.90;;;;;;5045163;28;20196;-77
2023/07/02 07:23:34;;;;;;;7.10;4.90;;;24.90;99.90;;;;;;5054896;28;20219;-80
2023/07/02 07:26:01;;;;;;;8.70;5.33;;;25.30;99.90;;;;;;5054069;28;20225;-80
2023/07/02 07:28:28;;;;;;;9.37;8.47;;;25.90;99.90;;;;;;5046545;28;20633;-78
2023/07/02 07:30:54;;;;;;;9.60;8.53;;;25.80;99.90;;;;;;5052564;28;20191;-77
2023/07/02 07:33:21;;;;;;;11.30;7.30;;;25.50;99.90;;;;;;5055173;28;20290;-78
2023/07/02 07:35:48;;;;;;;8.53;6.90;;;24.80;99.90;;;;;;5046926;28;20200;-78
2023/07/02 07:38:16;;;;;;;9.70;7.07;;;24.20;99.90;;;;;;5049662;28;20203;-76
2023/07/02 07:40:44;;;;;;;10.30;8.57;;;23.80;99.90;;;;;;5039064;28;20192;-77
2023/07/02 07:43:11;;;;;;;10.30;8.13;;;23.70;99.90;;;;;;5052927;28;20215;-78
2023/07/02 07:45:38;;;;;;;10.43;7.73;;;23.80;99.90;;;;;;5043245;28;20207;-77
2023/07/02 07:48:05;;;;;;;11.93;10.73;;;23.80;99.90;;;;;;5049131;28;20209;-78
2023/07/02 07:50:32;;;;;;;11.23;10.00;;;24.30;99.90;;;;;;5049116;28;20203;-80
2023/07/02 07:52:59;;;;;;;10.63;8.80;;;24.50;99.90;;;;;;5045396;28;20231;-78
2023/07/02 07:55:28;;;;;;;13.47;11.07;;;24.10;99.90;;;;;;5048871;28;20207;-78
2023/07/02 07:57:54;;;;;;;10.87;9.83;;;23.60;99.90;;;;;;5050463;28;20665;-79
2023/07/02 08:00:22;;;;;;;9.80;7.83;;;23.70;99.90;;;;;;5049987;28;20258;-79
2023/07/02 08:02:49;;;;;;;9.67;7.90;;;24.40;99.90;;;;;;5032538;28;20227;-78
2023/07/02 08:05:16;;;;;;;12.00;10.50;;;25.00;99.90;;;;;;5031382;28;20221;-80
2023/07/02 08:07:43;;;;;;;13.33;8.80;;;25.50;99.90;;;;;;5036427;28;20208;-77
2023/07/02 08:10:10;;;;;;;12.23;7.97;;;25.70;99.90;;;;;;5039992;28;20264;-80
2023/07/02 08:12:39;;;;;;;13.77;9.53;;;25.90;99.90;;;;;;5043480;28;20216;-78
2023/07/02 08:15:07;;;;;;;11.43;8.53;;;26.10;99.90;;;;;;5047873;28;20199;-78
2023/07/02 08:17:34;;;;;;;11.53;8.57;;;26.30;99.90;;;;;;5048001;28;20218;-83
2023/07/02 08:20:01;;;;;;;14.03;10.90;;;26.00;99.90;;;;;;5053168;28;20275;-77
2023/07/02 08:22:28;;;;;;;14.10;11.77;;;25.40;99.90;;;;;;5051768;28;20223;-78
2023/07/02 08:24:55;;;;;;;13.07;11.73;;;24.80;99.90;;;;;;5046811;28;20226;-81
2023/07/02 08:27:23;;;;;;;15.13;10.70;;;24.20;99.90;;;;;;5047023;28;20611;-81
2023/07/02 08:29:51;;;;;;;13.40;8.97;;;23.60;99.90;;;;;;5049090;28;20219;-78
2023/07/02 08:32:17;;;;;;;14.17;12.73;;;23.20;99.90;;;;;;5047275;28;20215;-82
2023/07/02 08:34:44;;;;;;;15.43;13.83;;;23.40;99.90;;;;;;5046361;28;20666;-80
2023/07/02 08:37:11;;;;;;;13.90;12.47;;;24.10;99.90;;;;;;5043550;28;20199;-80
2023/07/02 08:39:39;;;;;;;15.43;12.77;;;24.10;99.90;;;;;;5047043;28;20196;-81
2023/07/02 08:42:06;;;;;;;15.10;13.00;;;24.80;99.90;;;;;;5047435;28;20402;-82
2023/07/02 08:44:34;;;;;;;15.50;11.73;;;25.20;99.90;;;;;;5047954;28;20195;-79
2023/07/02 08:47:02;;;;;;;13.77;11.33;;;24.80;99.90;;;;;;5049061;28;20651;-81
2023/07/02 08:49:30;;;;;;;13.73;9.07;;;24.50;99.90;;;;;;5051038;28;20307;-78
2023/07/02 08:51:56;;;;;;;12.67;9.60;;;24.30;99.90;;;;;;5047710;28;20289;-81
2023/07/02 08:54:24;;;;;;;13.63;9.77;;;24.20;99.90;;;;;;5054103;28;20203;-80
2023/07/02 08:56:50;;;;;;;13.87;9.53;;;24.20;99.90;;;;;;5052609;28;20207;-81
2023/07/02 08:59:17;;;;;;;11.57;8.93;;;24.80;99.90;;;;;;5053680;28;20214;-82
2023/07/02 09:01:48;;;;;;;14.33;12.67;;;25.70;99.90;;;;;;5047608;28;20219;-78
2023/07/02 09:04:21;;;;;;;15.23;12.73;;;26.50;99.90;;;;;;5049800;28;20187;-79
2023/07/02 09:06:48;;;;;;;16.67;12.90;;;26.30;99.90;;;;;;5047860;28;20658;-81
2023/07/02 09:09:15;;;;;;;14.83;11.10;;;26.60;99.90;;;;;;5052717;28;20222;-80
2023/07/02 09:11:49;;;;;;;11.33;9.67;;;26.60;99.90;;;;;;5049363;28;20230;-81
2023/07/02 09:14:27;;;;;;;15.33;10.33;;;26.90;99.90;;;;;;5053265;28;20199;-81
2023/07/02 09:17:05;;;;;;;14.63;12.50;;;26.30;99.90;;;;;;5048413;28;20705;-80
2023/07/02 09:19:34;;;;;;;13.37;11.97;;;26.10;99.90;;;;;;5045446;28;20615;-79
2023/07/02 09:22:01;;;;;;;13.27;9.23;;;26.20;99.90;;;;;;5045463;28;20247;-80
2023/07/02 09:24:29;;;;;;;13.30;9.07;;;26.90;99.90;;;;;;5063059;28;20269;-78
2023/07/02 09:26:58;;;;;;;13.87;11.97;;;27.10;99.90;;;;;;5055722;28;20209;-80
2023/07/02 09:29:28;;;;;;;15.43;12.13;;;27.40;99.90;;;;;;5047535;28;20212;-80
2023/07/02 09:31:55;;;;;;;13.50;9.37;;;27.10;99.90;;;;;;5072270;28;20739;-78
2023/07/02 09:34:28;;;;;;;12.27;9.73;;;26.70;99.90;;;;;;5066798;28;20605;-79
2023/07/02 09:36:56;;;;;;;11.87;8.73;;;26.70;99.90;;;;;;5073448;28;20202;-82
2023/07/02 09:39:27;;;;;;;12.67;9.63;;;26.30;99.90;;;;;;5051856;28;20199;-79
2023/07/02 09:41:56;;;;;;;12.87;9.40;;;26.20;99.90;;;;;;5049233;28;20302;-79
2023/07/02 09:44:25;;;;;;;13.30;9.67;;;26.00;99.90;;;;;;5051699;28;20593;-80
2023/07/02 09:47:01;;;;;;;11.77;8.97;;;25.90;99.90;;;;;;5038766;28;20564;-76
2023/07/02 09:49:32;;;;;;;14.23;9.60;;;26.60;99.90;;;;;;5045609;28;20215;-76
2023/07/02 09:52:01;;;;;;;13.13;9.03;;;27.40;99.90;;;;;;5051672;28;20600;-78
2023/07/02 09:54:28;;;;;;;14.23;10.00;;;27.90;99.90;;;;;;5046142;28;20203;-76
2023/07/02 09:56:56;;;;;;;15.23;10.57;;;28.30;99.90;;;;;;5051959;28;20653;-77
2023/07/02 09:59:23;;;;;;;13.97;10.47;;;28.50;99.90;;;;;;5045368;28;20267;-80
2023/07/02 10:01:51;;;;;;;15.53;13.20;;;28.50;99.90;;;;;;5050677;28;20232;-78
2023/07/02 10:04:19;;;;;;;15.47;11.47;;;28.50;99.90;;;;;;5050622;28;20210;-78
2023/07/02 10:06:48;;;;;;;14.27;11.83;;;28.40;99.90;;;;;;5047844;28;20283;-78
2023/07/02 10:09:16;;;;;;;14.40;12.10;;;28.40;99.90;;;;;;5052116;28;20218;-77
2023/07/02 10:11:44;;;;;;;16.40;12.07;;;28.10;99.90;;;;;;5054160;28;20269;-79
2023/07/02 10:14:11;;;;;;;19.60;14.47;;;27.90;99.90;;;;;;5054773;28;20467;-78
2023/07/02 10:16:50;;;;;;;17.73;15.43;;;27.30;99.90;;;;;;5050252;28;20195;-79
2023/07/02 10:19:17;;;;;;;18.37;15.37;;;26.80;99.90;;;;;;5049375;28;20194;-77
2023/07/02 10:21:45;;;;;;;17.77;15.30;;;26.20;99.90;;;;;;5051987;28;20211;-81
2023/07/02 10:24:13;;;;;;;19.17;16.27;;;26.10;99.90;;;;;;5053791;28;20667;-80
2023/07/02 10:26:53;;;;;;;18.83;13.37;;;25.90;99.90;;;;;;5051517;28;20655;-79
2023/07/02 10:29:21;;;;;;;17.77;14.77;;;25.70;99.90;;;;;;5046627;28;20666;-80
2023/07/02 10:31:51;;;;;;;16.57;13.47;;;25.60;99.90;;;;;;5048182;28;20222;-79
2023/07/02 10:34:29;;;;;;;19.97;15.97;;;26.00;99.90;;;;;;5049895;28;20692;-80
2023/07/02 10:36:56;;;;;;;17.10;14.33;;;26.30;99.90;;;;;;5047252;28;20199;-79
2023/07/02 10:39:23;;;;;;;19.07;15.70;;;26.10;99.90;;;;;;5048878;28;20227;-81
2023/07/02 10:41:51;;;;;;;19.33;13.10;;;26.10;99.90;;;;;;5054467;28;20249;-77
2023/07/02 10:44:18;;;;;;;16.97;13.17;;;26.20;99.90;;;;;;5045511;28;20663;-80
2023/07/02 10:46:46;;;;;;;18.17;16.23;;;26.50;99.90;;;;;;5050662;28;20217;-80
2023/07/02 10:49:13;;;;;;;19.97;16.50;;;26.70;99.90;;;;;;5052679;28;20219;-80
2023/07/02 10:51:40;;;;;;;17.97;15.83;;;27.00;99.90;;;;;;5055672;28;20684;-80
2023/07/02 10:54:06;;;;;;;16.40;13.67;;;27.00;99.90;;;;;;5049355;28;20191;-79
2023/07/02 10:56:33;;;;;;;17.83;13.30;;;26.90;99.90;;;;;;5051922;28;20682;-78
2023/07/02 10:59:01;;;;;;;21.10;14.47;;;26.50;99.90;;;;;;5053356;28;20613;-79
2023/07/02 11:01:29;;;;;;;19.60;16.83;;;26.10;99.90;;;;;;5048585;28;20636;-79
2023/07/02 11:03:58;;;;;;;19.30;14.40;;;26.20;99.90;;;;;;5048666;28;20713;-79
2023/07/02 11:06:25;;;;;;;21.60;14.90;;;26.30;99.90;;;;;;5052138;28;20196;-79
2023/07/02 11:08:52;;;;;;;21.57;14.23;;;26.30;99.90;;;;;;5048463;28;20626;-80
2023/07/02 11:11:19;;;;;;;19.60;15.97;;;26.40;99.90;;;;;;5044880;28;20699;-79
2023/07/02 11:13:47;;;;;;;23.33;18.33;;;26.50;99.90;;;;;;5052933;28;20196;-80
2023/07/02 11:16:25;;;;;;;20.20;16.17;;;26.50;99.90;;;;;;5045187;28;20207;-78
2023/07/02 11:18:53;;;;;;;19.87;16.37;;;26.40;99.90;;;;;;5048922;28;20249;-80
2023/07/02 11:21:20;;;;;;;21.07;15.40;;;26.60;99.90;;;;;;5046926;28;20284;-79
2023/07/02 11:23:47;;;;;;;18.97;16.17;;;26.80;99.90;;;;;;5055077;28;20325;-80
2023/07/02 11:26:14;;;;;;;19.53;15.03;;;26.80;99.90;;;;;;5054477;28;20261;-79
2023/07/02 11:28:51;;;;;;;22.07;16.67;;;26.90;99.90;;;;;;5048536;28;20202;-78
2023/07/02 11:31:28;;;;;;;20.17;15.50;;;26.80;99.90;;;;;;5049917;28;20697;-80
2023/07/02 11:33:55;;;;;;;21.77;15.37;;;26.70;99.90;;;;;;5054662;28;20213;-80
2023/07/02 11:36:24;;;;;;;19.87;14.97;;;26.90;99.90;;;;;;5056329;28;20195;-78
2023/07/02 11:38:52;;;;;;;21.43;15.80;;;27.20;99.90;;;;;;5050770;28;20197;-76
2023/07/02 11:41:19;;;;;;;21.67;16.20;;;27.40;99.90;;;;;;5053788;28;20456;-77
2023/07/02 11:43:47;;;;;;;21.90;16.57;;;27.00;99.80;;;;;;5046490;28;20249;-77
2023/07/02 11:46:14;;;;;;;19.33;15.17;;;26.70;99.90;;;;;;5049930;28;20257;-75
2023/07/02 11:48:42;;;;;;;20.23;16.27;;;26.60;99.90;;;;;;5050989;28;20602;-76
2023/07/02 11:51:09;;;;;;;20.53;18.33;;;26.40;99.90;;;;;;5052594;28;20219;-75
2023/07/02 11:53:36;;;;;;;22.80;18.20;;;26.40;99.90;;;;;;5044212;28;20604;-77
2023/07/02 11:56:03;;;;;;;20.87;15.00;;;26.20;99.90;;;;;;5059639;28;20716;-77
2023/07/02 11:58:30;;;;;;;18.00;13.67;;;26.40;99.90;;;;;;5045439;28;20212;-77
2023/07/02 12:00:57;;;;;;;18.43;13.53;;;26.50;99.90;;;;;;5050948;28;20217;-77
2023/07/02 12:03:24;;;;;;;17.33;13.27;;;26.70;99.90;;;;;;5063810;28;20567;-77
2023/07/02 12:05:52;;;;;;;20.47;13.93;;;26.90;99.30;;;;;;5047728;28;20230;-78
2023/07/02 12:08:19;;;;;;;20.70;16.13;;;26.90;99.60;;;;;;5035971;28;20570;-77
2023/07/02 12:10:46;;;;;;;20.50;15.07;;;26.80;98.10;;;;;;5038119;28;20204;-78
2023/07/02 12:13:12;;;;;;;17.40;13.57;;;26.70;98.60;;;;;;5043827;28;20214;-78
2023/07/02 12:15:39;;;;;;;14.33;12.17;;;26.90;99.50;;;;;;5043275;28;20684;-76
2023/07/02 12:18:06;;;;;;;18.70;14.40;;;27.10;99.40;;;;;;5052155;28;20200;-76
2023/07/02 12:20:33;;;;;;;15.77;11.90;;;27.30;98.20;;;;;;5047636;28;20670;-76
2023/07/02 12:23:01;;;;;;;16.77;12.00;;;27.30;97.70;;;;;;5051481;28;20222;-77
2023/07/02 12:25:28;;;;;;;17.83;13.10;;;27.20;98.20;;;;;;5049892;28;20744;-77
2023/07/02 12:27:55;;;;;;;16.47;12.33;;;27.40;98.80;;;;;;5042541;28;20314;-77
2023/07/02 12:30:22;;;;;;;18.37;12.47;;;27.30;98.00;;;;;;5058056;28;20222;-78
2023/07/02 12:32:48;;;;;;;16.43;14.20;;;27.20;97.00;;;;;;5069215;28;20293;-77
2023/07/02 12:35:15;;;;;;;18.23;16.03;;;27.10;97.40;;;;;;5052255;28;20227;-77
2023/07/02 12:37:46;;;;;;;20.27;15.97;;;27.00;96.40;;;;;;5038585;28;20195;-77
2023/07/02 12:40:14;;;;;;;17.00;15.17;;;27.00;97.00;;;;;;5050131;28;20187;-77
2023/07/02 12:42:42;;;;;;;20.23;16.57;;;27.00;96.80;;;;;;5047064;28;20215;-77